sensor_id;sensor_type;location;lat;lon;timestamp;P1;durP1;ratioP1;P2;durP2;ratioP2
64197;SDS011;50512;53.666;9.700;2022-10-16T00:02:23;13.88;;;7.75;;
64197;SDS011;50512;53.666;9.700;2022-10-16T00:04:48;11.57;;;6.43;;
64197;SDS011;50512;53.666;9.700;2022-10-16T00:07:14;11.93;;;6.80;;
64197;SDS011;50512;53.666;9.700;2022-10-16T00:09:39;11.90;;;6.63;;
64197;SDS011;50512;53.666;9.700;2022-10-16T00:12:04;13.40;;;7.22;;
64197;SDS011;50512;53.666;9.700;2022-10-16T00:14:31;14.13;;;6.57;;
64197;SDS011;50512;53.666;9.700;2022-10-16T00:16:57;12.50;;;5.53;;
64197;SDS011;50512;53.666;9.700;2022-10-16T00:19:22;12.07;;;6.25;;
64197;SDS011;50512;53.666;9.700;2022-10-16T00:21:48;16.20;;;7.07;;
64197;SDS011;50512;53.666;9.700;2022-10-16T00:24:13;10.90;;;5.57;;
64197;SDS011;50512;53.666;9.700;2022-10-16T00:26:39;16.60;;;6.68;;
64197;SDS011;50512;53.666;9.700;2022-10-16T00:29:05;13.98;;;6.60;;
64197;SDS011;50512;53.666;9.700;2022-10-16T00:31:32;13.23;;;5.85;;
64197;SDS011;50512;53.666;9.700;2022-10-16T00:33:58;15.15;;;6.20;;
64197;SDS011;50512;53.666;9.700;2022-10-16T00:36:24;11.35;;;5.90;;
64197;SDS011;50512;53.666;9.700;2022-10-16T00:38:50;12.27;;;5.63;;
64197;SDS011;50512;53.666;9.700;2022-10-16T00:41:17;10.32;;;5.03;;
64197;SDS011;50512;53.666;9.700;2022-10-16T00:43:43;8.05;;;4.00;;
64197;SDS011;50512;53.666;9.700;2022-10-16T00:46:12;8.85;;;4.43;;
64197;SDS011;50512;53.666;9.700;2022-10-16T00:48:42;8.35;;;3.70;;
64197;SDS011;50512;53.666;9.700;2022-10-16T00:51:12;5.72;;;3.28;;
64197;SDS011;50512;53.666;9.700;2022-10-16T00:53:38;12.35;;;3.60;;
64197;SDS011;50512;53.666;9.700;2022-10-16T00:56:04;7.20;;;3.08;;
64197;SDS011;50512;53.666;9.700;2022-10-16T00:58:30;8.82;;;4.20;;
64197;SDS011;50512;53.666;9.700;2022-10-16T01:00:56;8.63;;;3.95;;
64197;SDS011;50512;53.666;9.700;2022-10-16T01:03:22;7.55;;;3.28;;
64197;SDS011;50512;53.666;9.700;2022-10-16T01:05:53;7.88;;;4.03;;
64197;SDS011;50512;53.666;9.700;2022-10-16T01:08:27;8.95;;;2.88;;
64197;SDS011;50512;53.666;9.700;2022-10-16T01:11:03;7.85;;;3.08;;
64197;SDS011;50512;53.666;9.700;2022-10-16T01:16:06;6.30;;;2.90;;
64197;SDS011;50512;53.666;9.700;2022-10-16T01:18:37;5.35;;;2.60;;
64197;SDS011;50512;53.666;9.700;2022-10-16T01:21:09;6.47;;;2.95;;
64197;SDS011;50512;53.666;9.700;2022-10-16T01:23:44;7.85;;;2.85;;
64197;SDS011;50512;53.666;9.700;2022-10-16T01:29:12;6.00;;;2.38;;
64197;SDS011;50512;53.666;9.700;2022-10-16T01:31:44;9.67;;;2.70;;
64197;SDS011;50512;53.666;9.700;2022-10-16T01:34:14;10.10;;;2.90;;
64197;SDS011;50512;53.666;9.700;2022-10-16T01:36:42;4.45;;;2.47;;
64197;SDS011;50512;53.666;9.700;2022-10-16T01:39:12;5.60;;;2.65;;
64197;SDS011;50512;53.666;9.700;2022-10-16T01:41:40;5.75;;;2.45;;
64197;SDS011;50512;53.666;9.700;2022-10-16T01:44:11;6.55;;;2.83;;
64197;SDS011;50512;53.666;9.700;2022-10-16T01:46:42;6.85;;;3.65;;
64197;SDS011;50512;53.666;9.700;2022-10-16T01:49:10;4.63;;;2.50;;
64197;SDS011;50512;53.666;9.700;2022-10-16T01:51:36;6.45;;;2.55;;
64197;SDS011;50512;53.666;9.700;2022-10-16T01:54:02;5.72;;;2.50;;
64197;SDS011;50512;53.666;9.700;2022-10-16T01:56:31;8.38;;;3.00;;
64197;SDS011;50512;53.666;9.700;2022-10-16T01:58:59;5.38;;;2.72;;
64197;SDS011;50512;53.666;9.700;2022-10-16T02:01:30;8.02;;;2.78;;
64197;SDS011;50512;53.666;9.700;2022-10-16T02:03:59;7.15;;;2.35;;
64197;SDS011;50512;53.666;9.700;2022-10-16T02:06:28;5.70;;;2.75;;
64197;SDS011;50512;53.666;9.700;2022-10-16T02:08:54;4.65;;;2.30;;
64197;SDS011;50512;53.666;9.700;2022-10-16T02:11:19;7.15;;;2.53;;
64197;SDS011;50512;53.666;9.700;2022-10-16T02:13:46;11.45;;;2.65;;
64197;SDS011;50512;53.666;9.700;2022-10-16T02:16:17;5.30;;;2.50;;
64197;SDS011;50512;53.666;9.700;2022-10-16T02:18:44;5.97;;;2.70;;
64197;SDS011;50512;53.666;9.700;2022-10-16T02:21:11;6.18;;;2.85;;
64197;SDS011;50512;53.666;9.700;2022-10-16T02:23:44;11.35;;;2.65;;
64197;SDS011;50512;53.666;9.700;2022-10-16T02:26:15;4.38;;;2.42;;
64197;SDS011;50512;53.666;9.700;2022-10-16T02:28:46;6.13;;;2.35;;
64197;SDS011;50512;53.666;9.700;2022-10-16T02:31:18;5.78;;;2.08;;
64197;SDS011;50512;53.666;9.700;2022-10-16T02:33:49;6.45;;;2.63;;
64197;SDS011;50512;53.666;9.700;2022-10-16T02:36:16;4.40;;;2.15;;
64197;SDS011;50512;53.666;9.700;2022-10-16T02:38:42;4.72;;;2.30;;
64197;SDS011;50512;53.666;9.700;2022-10-16T02:41:08;6.85;;;2.03;;
64197;SDS011;50512;53.666;9.700;2022-10-16T02:43:33;5.97;;;2.17;;
64197;SDS011;50512;53.666;9.700;2022-10-16T02:45:59;3.67;;;1.75;;
64197;SDS011;50512;53.666;9.700;2022-10-16T02:48:25;7.10;;;1.98;;
64197;SDS011;50512;53.666;9.700;2022-10-16T02:50:51;4.60;;;1.92;;
64197;SDS011;50512;53.666;9.700;2022-10-16T02:53:17;4.13;;;2.03;;
64197;SDS011;50512;53.666;9.700;2022-10-16T02:55:42;4.22;;;2.08;;
64197;SDS011;50512;53.666;9.700;2022-10-16T02:58:08;3.75;;;1.90;;
64197;SDS011;50512;53.666;9.700;2022-10-16T03:00:34;6.13;;;1.77;;
64197;SDS011;50512;53.666;9.700;2022-10-16T03:02:59;5.47;;;2.55;;
64197;SDS011;50512;53.666;9.700;2022-10-16T03:05:25;7.10;;;1.83;;
64197;SDS011;50512;53.666;9.700;2022-10-16T03:07:51;4.30;;;2.20;;
64197;SDS011;50512;53.666;9.700;2022-10-16T03:10:17;3.03;;;1.70;;
64197;SDS011;50512;53.666;9.700;2022-10-16T03:12:42;4.30;;;1.80;;
64197;SDS011;50512;53.666;9.700;2022-10-16T03:15:08;3.90;;;1.60;;
64197;SDS011;50512;53.666;9.700;2022-10-16T03:17:34;4.95;;;1.75;;
64197;SDS011;50512;53.666;9.700;2022-10-16T03:19:59;3.95;;;1.67;;
64197;SDS011;50512;53.666;9.700;2022-10-16T03:22:25;4.07;;;1.88;;
64197;SDS011;50512;53.666;9.700;2022-10-16T03:24:52;5.45;;;2.05;;
64197;SDS011;50512;53.666;9.700;2022-10-16T03:27:18;4.30;;;1.35;;
64197;SDS011;50512;53.666;9.700;2022-10-16T03:29:43;5.22;;;1.70;;
64197;SDS011;50512;53.666;9.700;2022-10-16T03:32:09;5.43;;;1.95;;
64197;SDS011;50512;53.666;9.700;2022-10-16T03:34:34;6.70;;;1.90;;
64197;SDS011;50512;53.666;9.700;2022-10-16T03:36:59;7.28;;;1.80;;
64197;SDS011;50512;53.666;9.700;2022-10-16T03:39:25;4.47;;;2.33;;
64197;SDS011;50512;53.666;9.700;2022-10-16T03:41:52;3.83;;;1.63;;
64197;SDS011;50512;53.666;9.700;2022-10-16T03:44:17;4.60;;;1.80;;
64197;SDS011;50512;53.666;9.700;2022-10-16T03:46:43;4.75;;;1.67;;
64197;SDS011;50512;53.666;9.700;2022-10-16T03:49:08;7.90;;;1.77;;
64197;SDS011;50512;53.666;9.700;2022-10-16T03:51:34;3.72;;;1.58;;
64197;SDS011;50512;53.666;9.700;2022-10-16T03:53:59;4.70;;;1.60;;
64197;SDS011;50512;53.666;9.700;2022-10-16T03:56:24;4.97;;;1.65;;
64197;SDS011;50512;53.666;9.700;2022-10-16T03:58:52;4.45;;;1.90;;
64197;SDS011;50512;53.666;9.700;2022-10-16T04:01:17;1.55;;;1.20;;
64197;SDS011;50512;53.666;9.700;2022-10-16T04:03:43;4.57;;;1.50;;
64197;SDS011;50512;53.666;9.700;2022-10-16T04:06:08;5.82;;;1.80;;
64197;SDS011;50512;53.666;9.700;2022-10-16T04:08:34;4.57;;;1.80;;
64197;SDS011;50512;53.666;9.700;2022-10-16T04:10:59;7.60;;;2.17;;
64197;SDS011;50512;53.666;9.700;2022-10-16T04:13:25;4.40;;;1.67;;
64197;SDS011;50512;53.666;9.700;2022-10-16T04:15:52;3.97;;;1.40;;
64197;SDS011;50512;53.666;9.700;2022-10-16T04:18:17;5.85;;;2.08;;
64197;SDS011;50512;53.666;9.700;2022-10-16T04:20:43;5.40;;;1.98;;
64197;SDS011;50512;53.666;9.700;2022-10-16T04:23:08;2.63;;;1.55;;
64197;SDS011;50512;53.666;9.700;2022-10-16T04:25:33;3.20;;;1.50;;
64197;SDS011;50512;53.666;9.700;2022-10-16T04:27:59;3.97;;;1.80;;
64197;SDS011;50512;53.666;9.700;2022-10-16T04:30:24;4.63;;;2.28;;
64197;SDS011;50512;53.666;9.700;2022-10-16T04:32:52;4.43;;;1.70;;
64197;SDS011;50512;53.666;9.700;2022-10-16T04:35:17;6.90;;;2.03;;
64197;SDS011;50512;53.666;9.700;2022-10-16T04:37:43;3.88;;;1.80;;
64197;SDS011;50512;53.666;9.700;2022-10-16T04:40:09;5.28;;;2.38;;
64197;SDS011;50512;53.666;9.700;2022-10-16T04:42:35;4.10;;;1.90;;
64197;SDS011;50512;53.666;9.700;2022-10-16T04:45:00;3.53;;;1.80;;
64197;SDS011;50512;53.666;9.700;2022-10-16T04:47:25;4.88;;;1.80;;
64197;SDS011;50512;53.666;9.700;2022-10-16T04:49:52;3.28;;;1.90;;
64197;SDS011;50512;53.666;9.700;2022-10-16T04:52:18;9.00;;;2.78;;
64197;SDS011;50512;53.666;9.700;2022-10-16T04:54:43;6.28;;;2.00;;
64197;SDS011;50512;53.666;9.700;2022-10-16T04:57:09;6.85;;;1.83;;
64197;SDS011;50512;53.666;9.700;2022-10-16T04:59:34;4.75;;;1.95;;
64197;SDS011;50512;53.666;9.700;2022-10-16T05:01:59;6.25;;;1.75;;
64197;SDS011;50512;53.666;9.700;2022-10-16T05:04:25;4.43;;;2.78;;
64197;SDS011;50512;53.666;9.700;2022-10-16T05:06:52;5.15;;;2.25;;
64197;SDS011;50512;53.666;9.700;2022-10-16T05:09:17;4.50;;;2.00;;
64197;SDS011;50512;53.666;9.700;2022-10-16T05:11:43;5.25;;;2.10;;
64197;SDS011;50512;53.666;9.700;2022-10-16T05:14:08;3.33;;;1.90;;
64197;SDS011;50512;53.666;9.700;2022-10-16T05:16:33;5.88;;;2.67;;
64197;SDS011;50512;53.666;9.700;2022-10-16T05:18:59;3.22;;;1.85;;
64197;SDS011;50512;53.666;9.700;2022-10-16T05:21:24;4.28;;;2.30;;
64197;SDS011;50512;53.666;9.700;2022-10-16T05:23:51;10.55;;;2.53;;
64197;SDS011;50512;53.666;9.700;2022-10-16T05:26:18;3.67;;;2.08;;
64197;SDS011;50512;53.666;9.700;2022-10-16T05:28:43;4.50;;;1.75;;
64197;SDS011;50512;53.666;9.700;2022-10-16T05:31:09;5.78;;;2.22;;
64197;SDS011;50512;53.666;9.700;2022-10-16T05:33:35;4.07;;;2.42;;
64197;SDS011;50512;53.666;9.700;2022-10-16T05:36:01;8.35;;;2.70;;
64197;SDS011;50512;53.666;9.700;2022-10-16T05:38:26;6.95;;;2.75;;
64197;SDS011;50512;53.666;9.700;2022-10-16T05:40:53;5.70;;;2.25;;
64197;SDS011;50512;53.666;9.700;2022-10-16T05:43:18;10.52;;;2.70;;
64197;SDS011;50512;53.666;9.700;2022-10-16T05:45:44;7.22;;;2.80;;
64197;SDS011;50512;53.666;9.700;2022-10-16T05:48:17;6.38;;;3.28;;
64197;SDS011;50512;53.666;9.700;2022-10-16T05:50:43;9.43;;;3.13;;
64197;SDS011;50512;53.666;9.700;2022-10-16T05:53:08;7.15;;;3.10;;
64197;SDS011;50512;53.666;9.700;2022-10-16T05:55:34;7.28;;;3.08;;
64197;SDS011;50512;53.666;9.700;2022-10-16T05:58:01;6.32;;;2.97;;
64197;SDS011;50512;53.666;9.700;2022-10-16T06:00:26;4.95;;;2.83;;
64197;SDS011;50512;53.666;9.700;2022-10-16T06:02:51;6.35;;;3.15;;
64197;SDS011;50512;53.666;9.700;2022-10-16T06:05:17;11.05;;;3.80;;
64197;SDS011;50512;53.666;9.700;2022-10-16T06:07:42;5.90;;;3.25;;
64197;SDS011;50512;53.666;9.700;2022-10-16T06:10:08;8.38;;;3.15;;
64197;SDS011;50512;53.666;9.700;2022-10-16T06:12:34;7.07;;;3.53;;
64197;SDS011;50512;53.666;9.700;2022-10-16T06:15:00;8.15;;;3.53;;
64197;SDS011;50512;53.666;9.700;2022-10-16T06:17:26;8.93;;;3.90;;
64197;SDS011;50512;53.666;9.700;2022-10-16T06:19:51;9.40;;;3.90;;
64197;SDS011;50512;53.666;9.700;2022-10-16T06:22:17;7.97;;;3.90;;
64197;SDS011;50512;53.666;9.700;2022-10-16T06:24:42;11.35;;;4.13;;
64197;SDS011;50512;53.666;9.700;2022-10-16T06:27:07;7.63;;;3.47;;
64197;SDS011;50512;53.666;9.700;2022-10-16T06:29:33;9.52;;;3.78;;
64197;SDS011;50512;53.666;9.700;2022-10-16T06:32:00;8.52;;;4.07;;
64197;SDS011;50512;53.666;9.700;2022-10-16T06:34:25;12.23;;;3.53;;
64197;SDS011;50512;53.666;9.700;2022-10-16T06:36:51;12.52;;;5.05;;
64197;SDS011;50512;53.666;9.700;2022-10-16T06:39:16;9.73;;;4.15;;
64197;SDS011;50512;53.666;9.700;2022-10-16T06:41:41;15.02;;;4.07;;
64197;SDS011;50512;53.666;9.700;2022-10-16T06:44:07;11.68;;;4.03;;
64197;SDS011;50512;53.666;9.700;2022-10-16T06:46:33;7.80;;;3.72;;
64197;SDS011;50512;53.666;9.700;2022-10-16T06:49:00;7.18;;;3.67;;
64197;SDS011;50512;53.666;9.700;2022-10-16T06:51:25;9.63;;;4.50;;
64197;SDS011;50512;53.666;9.700;2022-10-16T06:53:51;7.22;;;3.75;;
64197;SDS011;50512;53.666;9.700;2022-10-16T06:56:19;10.98;;;4.10;;
64197;SDS011;50512;53.666;9.700;2022-10-16T06:58:46;9.48;;;4.22;;
64197;SDS011;50512;53.666;9.700;2022-10-16T07:01:12;8.88;;;3.88;;
64197;SDS011;50512;53.666;9.700;2022-10-16T07:03:38;7.20;;;3.95;;
64197;SDS011;50512;53.666;9.700;2022-10-16T07:06:07;12.30;;;4.53;;
64197;SDS011;50512;53.666;9.700;2022-10-16T07:08:34;9.38;;;3.53;;
64197;SDS011;50512;53.666;9.700;2022-10-16T07:11:00;9.50;;;4.60;;
64197;SDS011;50512;53.666;9.700;2022-10-16T07:13:26;7.45;;;3.58;;
64197;SDS011;50512;53.666;9.700;2022-10-16T07:15:51;12.00;;;4.18;;
64197;SDS011;50512;53.666;9.700;2022-10-16T07:18:16;9.88;;;3.83;;
64197;SDS011;50512;53.666;9.700;2022-10-16T07:20:42;9.27;;;3.75;;
64197;SDS011;50512;53.666;9.700;2022-10-16T07:23:09;6.57;;;3.50;;
64197;SDS011;50512;53.666;9.700;2022-10-16T07:25:34;6.78;;;3.22;;
64197;SDS011;50512;53.666;9.700;2022-10-16T07:28:00;10.20;;;4.07;;
64197;SDS011;50512;53.666;9.700;2022-10-16T07:30:25;6.43;;;3.13;;
64197;SDS011;50512;53.666;9.700;2022-10-16T07:32:51;7.55;;;3.20;;
64197;SDS011;50512;53.666;9.700;2022-10-16T07:35:16;10.07;;;3.70;;
64197;SDS011;50512;53.666;9.700;2022-10-16T07:37:43;10.13;;;4.90;;
64197;SDS011;50512;53.666;9.700;2022-10-16T07:40:11;6.15;;;2.83;;
64197;SDS011;50512;53.666;9.700;2022-10-16T07:42:36;7.45;;;3.55;;
64197;SDS011;50512;53.666;9.700;2022-10-16T07:45:02;7.57;;;3.60;;
64197;SDS011;50512;53.666;9.700;2022-10-16T07:47:28;7.35;;;3.83;;
64197;SDS011;50512;53.666;9.700;2022-10-16T07:49:54;7.00;;;3.13;;
64197;SDS011;50512;53.666;9.700;2022-10-16T07:52:19;6.95;;;3.15;;
64197;SDS011;50512;53.666;9.700;2022-10-16T07:54:45;10.65;;;3.83;;
64197;SDS011;50512;53.666;9.700;2022-10-16T07:57:11;7.78;;;2.97;;
64197;SDS011;50512;53.666;9.700;2022-10-16T07:59:37;9.20;;;3.80;;
64197;SDS011;50512;53.666;9.700;2022-10-16T08:02:02;8.90;;;3.63;;
64197;SDS011;50512;53.666;9.700;2022-10-16T08:04:28;8.30;;;3.25;;
64197;SDS011;50512;53.666;9.700;2022-10-16T08:06:53;5.65;;;3.20;;
64197;SDS011;50512;53.666;9.700;2022-10-16T08:09:19;6.47;;;3.30;;
64197;SDS011;50512;53.666;9.700;2022-10-16T08:11:44;12.38;;;3.80;;
64197;SDS011;50512;53.666;9.700;2022-10-16T08:14:11;11.48;;;3.88;;
64197;SDS011;50512;53.666;9.700;2022-10-16T08:16:36;7.40;;;2.90;;
64197;SDS011;50512;53.666;9.700;2022-10-16T08:19:02;6.95;;;3.75;;
64197;SDS011;50512;53.666;9.700;2022-10-16T08:21:27;9.10;;;3.30;;
64197;SDS011;50512;53.666;9.700;2022-10-16T08:23:53;7.68;;;3.85;;
64197;SDS011;50512;53.666;9.700;2022-10-16T08:26:19;10.70;;;3.50;;
64197;SDS011;50512;53.666;9.700;2022-10-16T08:28:44;8.75;;;3.70;;
64197;SDS011;50512;53.666;9.700;2022-10-16T08:31:12;5.32;;;2.72;;
64197;SDS011;50512;53.666;9.700;2022-10-16T08:33:38;6.00;;;3.00;;
64197;SDS011;50512;53.666;9.700;2022-10-16T08:36:06;9.93;;;3.53;;
64197;SDS011;50512;53.666;9.700;2022-10-16T08:38:32;6.25;;;3.22;;
64197;SDS011;50512;53.666;9.700;2022-10-16T08:41:01;7.22;;;3.30;;
64197;SDS011;50512;53.666;9.700;2022-10-16T08:43:56;6.93;;;3.13;;
64197;SDS011;50512;53.666;9.700;2022-10-16T08:46:37;6.28;;;3.30;;
64197;SDS011;50512;53.666;9.700;2022-10-16T08:49:11;5.15;;;2.67;;
64197;SDS011;50512;53.666;9.700;2022-10-16T08:51:38;4.70;;;2.50;;
64197;SDS011;50512;53.666;9.700;2022-10-16T08:54:04;8.20;;;3.13;;
64197;SDS011;50512;53.666;9.700;2022-10-16T08:56:31;5.20;;;2.58;;
64197;SDS011;50512;53.666;9.700;2022-10-16T08:58:57;8.35;;;3.17;;
64197;SDS011;50512;53.666;9.700;2022-10-16T09:01:24;6.13;;;2.60;;
64197;SDS011;50512;53.666;9.700;2022-10-16T09:04:04;7.20;;;3.05;;
64197;SDS011;50512;53.666;9.700;2022-10-16T09:06:46;5.13;;;2.47;;
64197;SDS011;50512;53.666;9.700;2022-10-16T09:09:17;6.70;;;3.03;;
64197;SDS011;50512;53.666;9.700;2022-10-16T09:11:59;5.20;;;2.63;;
64197;SDS011;50512;53.666;9.700;2022-10-16T09:14:40;5.53;;;2.83;;
64197;SDS011;50512;53.666;9.700;2022-10-16T09:17:22;5.55;;;2.53;;
64197;SDS011;50512;53.666;9.700;2022-10-16T09:19:56;4.70;;;2.70;;
64197;SDS011;50512;53.666;9.700;2022-10-16T09:22:28;6.63;;;2.97;;
64197;SDS011;50512;53.666;9.700;2022-10-16T09:24:56;8.30;;;2.67;;
64197;SDS011;50512;53.666;9.700;2022-10-16T09:27:26;8.80;;;2.40;;
64197;SDS011;50512;53.666;9.700;2022-10-16T09:29:51;5.75;;;2.95;;
64197;SDS011;50512;53.666;9.700;2022-10-16T09:32:17;5.40;;;3.00;;
64197;SDS011;50512;53.666;9.700;2022-10-16T09:34:45;4.57;;;2.25;;
64197;SDS011;50512;53.666;9.700;2022-10-16T09:37:17;5.28;;;2.20;;
64197;SDS011;50512;53.666;9.700;2022-10-16T09:39:44;4.15;;;2.00;;
64197;SDS011;50512;53.666;9.700;2022-10-16T09:42:10;3.50;;;1.63;;
64197;SDS011;50512;53.666;9.700;2022-10-16T09:44:39;4.18;;;2.00;;
64197;SDS011;50512;53.666;9.700;2022-10-16T09:47:10;4.55;;;2.03;;
64197;SDS011;50512;53.666;9.700;2022-10-16T09:49:39;12.57;;;2.88;;
64197;SDS011;50512;53.666;9.700;2022-10-16T09:52:16;5.63;;;2.45;;
64197;SDS011;50512;53.666;9.700;2022-10-16T09:54:48;7.25;;;2.70;;
64197;SDS011;50512;53.666;9.700;2022-10-16T09:57:15;8.45;;;2.30;;
64197;SDS011;50512;53.666;9.700;2022-10-16T09:59:45;6.28;;;2.05;;
64197;SDS011;50512;53.666;9.700;2022-10-16T10:02:11;6.43;;;2.20;;
64197;SDS011;50512;53.666;9.700;2022-10-16T10:04:41;4.35;;;2.10;;
64197;SDS011;50512;53.666;9.700;2022-10-16T10:07:17;6.18;;;2.60;;
64197;SDS011;50512;53.666;9.700;2022-10-16T10:09:45;5.40;;;2.08;;
64197;SDS011;50512;53.666;9.700;2022-10-16T10:12:16;5.05;;;2.42;;
64197;SDS011;50512;53.666;9.700;2022-10-16T10:14:44;6.88;;;2.10;;
64197;SDS011;50512;53.666;9.700;2022-10-16T10:17:13;7.93;;;2.08;;
64197;SDS011;50512;53.666;9.700;2022-10-16T10:19:42;5.35;;;1.90;;
64197;SDS011;50512;53.666;9.700;2022-10-16T10:25:19;3.47;;;1.85;;
64197;SDS011;50512;53.666;9.700;2022-10-16T10:27:52;5.65;;;1.60;;
64197;SDS011;50512;53.666;9.700;2022-10-16T10:30:29;4.75;;;2.00;;
64197;SDS011;50512;53.666;9.700;2022-10-16T10:33:07;5.95;;;1.90;;
64197;SDS011;50512;53.666;9.700;2022-10-16T10:35:44;4.00;;;1.65;;
64197;SDS011;50512;53.666;9.700;2022-10-16T10:38:23;6.30;;;2.10;;
64197;SDS011;50512;53.666;9.700;2022-10-16T10:40:57;9.98;;;1.83;;
64197;SDS011;50512;53.666;9.700;2022-10-16T10:43:38;3.88;;;1.60;;
64197;SDS011;50512;53.666;9.700;2022-10-16T10:46:17;6.68;;;1.75;;
64197;SDS011;50512;53.666;9.700;2022-10-16T10:48:53;9.05;;;1.88;;
64197;SDS011;50512;53.666;9.700;2022-10-16T10:51:28;5.43;;;1.67;;
64197;SDS011;50512;53.666;9.700;2022-10-16T10:54:03;4.55;;;1.85;;
64197;SDS011;50512;53.666;9.700;2022-10-16T10:56:43;3.60;;;1.48;;
64197;SDS011;50512;53.666;9.700;2022-10-16T11:02:23;4.53;;;1.95;;
64197;SDS011;50512;53.666;9.700;2022-10-16T11:05:10;7.25;;;1.60;;
64197;SDS011;50512;53.666;9.700;2022-10-16T11:07:48;5.28;;;1.70;;
64197;SDS011;50512;53.666;9.700;2022-10-16T11:10:20;6.43;;;1.25;;
64197;SDS011;50512;53.666;9.700;2022-10-16T11:12:50;3.40;;;1.48;;
64197;SDS011;50512;53.666;9.700;2022-10-16T11:15:18;4.28;;;1.30;;
64197;SDS011;50512;53.666;9.700;2022-10-16T11:17:50;4.65;;;1.50;;
64197;SDS011;50512;53.666;9.700;2022-10-16T11:20:19;5.22;;;1.73;;
64197;SDS011;50512;53.666;9.700;2022-10-16T11:22:48;5.45;;;1.30;;
64197;SDS011;50512;53.666;9.700;2022-10-16T11:25:20;7.05;;;1.35;;
64197;SDS011;50512;53.666;9.700;2022-10-16T11:27:47;30.05;;;2.65;;
64197;SDS011;50512;53.666;9.700;2022-10-16T11:30:18;3.03;;;0.98;;
64197;SDS011;50512;53.666;9.700;2022-10-16T11:32:50;4.78;;;1.73;;
64197;SDS011;50512;53.666;9.700;2022-10-16T11:35:23;7.10;;;1.42;;
64197;SDS011;50512;53.666;9.700;2022-10-16T11:37:53;3.22;;;1.20;;
64197;SDS011;50512;53.666;9.700;2022-10-16T11:40:25;3.15;;;1.45;;
64197;SDS011;50512;53.666;9.700;2022-10-16T11:42:54;10.35;;;1.40;;
64197;SDS011;50512;53.666;9.700;2022-10-16T11:45:26;5.95;;;1.55;;
64197;SDS011;50512;53.666;9.700;2022-10-16T11:48:00;4.20;;;1.50;;
64197;SDS011;50512;53.666;9.700;2022-10-16T11:50:30;7.82;;;1.15;;
64197;SDS011;50512;53.666;9.700;2022-10-16T11:53:01;8.43;;;1.10;;
64197;SDS011;50512;53.666;9.700;2022-10-16T11:55:36;2.90;;;1.20;;
64197;SDS011;50512;53.666;9.700;2022-10-16T11:58:03;6.15;;;1.40;;
64197;SDS011;50512;53.666;9.700;2022-10-16T12:00:35;3.25;;;1.27;;
64197;SDS011;50512;53.666;9.700;2022-10-16T12:03:10;5.70;;;1.35;;
64197;SDS011;50512;53.666;9.700;2022-10-16T12:05:49;3.90;;;1.10;;
64197;SDS011;50512;53.666;9.700;2022-10-16T12:08:22;3.88;;;1.20;;
64197;SDS011;50512;53.666;9.700;2022-10-16T12:10:49;2.97;;;1.05;;
64197;SDS011;50512;53.666;9.700;2022-10-16T12:13:31;2.35;;;0.85;;
64197;SDS011;50512;53.666;9.700;2022-10-16T12:16:06;8.90;;;1.20;;
64197;SDS011;50512;53.666;9.700;2022-10-16T12:18:46;6.75;;;1.70;;
64197;SDS011;50512;53.666;9.700;2022-10-16T12:21:13;6.63;;;1.15;;
64197;SDS011;50512;53.666;9.700;2022-10-16T12:23:46;6.30;;;1.10;;
64197;SDS011;50512;53.666;9.700;2022-10-16T12:26:15;5.47;;;1.50;;
64197;SDS011;50512;53.666;9.700;2022-10-16T12:31:14;8.15;;;1.17;;
64197;SDS011;50512;53.666;9.700;2022-10-16T12:33:40;5.28;;;1.00;;
64197;SDS011;50512;53.666;9.700;2022-10-16T12:36:09;3.55;;;1.05;;
64197;SDS011;50512;53.666;9.700;2022-10-16T12:38:46;3.70;;;1.73;;
64197;SDS011;50512;53.666;9.700;2022-10-16T12:41:12;5.95;;;1.65;;
64197;SDS011;50512;53.666;9.700;2022-10-16T12:43:51;7.93;;;1.10;;
64197;SDS011;50512;53.666;9.700;2022-10-16T12:46:21;8.15;;;1.30;;
64197;SDS011;50512;53.666;9.700;2022-10-16T12:48:49;6.40;;;1.50;;
64197;SDS011;50512;53.666;9.700;2022-10-16T12:51:24;6.05;;;1.10;;
64197;SDS011;50512;53.666;9.700;2022-10-16T12:53:59;6.55;;;1.13;;
64197;SDS011;50512;53.666;9.700;2022-10-16T12:56:27;11.10;;;1.40;;
64197;SDS011;50512;53.666;9.700;2022-10-16T12:59:05;5.05;;;1.00;;
64197;SDS011;50512;53.666;9.700;2022-10-16T13:01:42;4.80;;;1.00;;
64197;SDS011;50512;53.666;9.700;2022-10-16T13:04:23;6.63;;;1.42;;
64197;SDS011;50512;53.666;9.700;2022-10-16T13:07:17;6.85;;;1.25;;
64197;SDS011;50512;53.666;9.700;2022-10-16T13:09:53;5.95;;;1.10;;
64197;SDS011;50512;53.666;9.700;2022-10-16T13:12:39;8.88;;;1.60;;
64197;SDS011;50512;53.666;9.700;2022-10-16T13:15:27;4.18;;;1.20;;
64197;SDS011;50512;53.666;9.700;2022-10-16T13:18:05;8.27;;;1.25;;
64197;SDS011;50512;53.666;9.700;2022-10-16T13:20:42;6.53;;;1.13;;
64197;SDS011;50512;53.666;9.700;2022-10-16T13:23:22;5.03;;;1.67;;
64197;SDS011;50512;53.666;9.700;2022-10-16T13:25:56;6.95;;;1.05;;
64197;SDS011;50512;53.666;9.700;2022-10-16T13:28:35;5.45;;;1.00;;
64197;SDS011;50512;53.666;9.700;2022-10-16T13:31:02;5.15;;;1.30;;
64197;SDS011;50512;53.666;9.700;2022-10-16T13:33:30;7.18;;;1.35;;
64197;SDS011;50512;53.666;9.700;2022-10-16T13:35:57;5.90;;;1.95;;
64197;SDS011;50512;53.666;9.700;2022-10-16T13:38:23;9.73;;;1.30;;
64197;SDS011;50512;53.666;9.700;2022-10-16T13:40:51;5.93;;;1.48;;
64197;SDS011;50512;53.666;9.700;2022-10-16T13:43:19;8.02;;;1.38;;
64197;SDS011;50512;53.666;9.700;2022-10-16T13:45:56;10.02;;;2.03;;
64197;SDS011;50512;53.666;9.700;2022-10-16T13:53:23;6.63;;;1.00;;
64197;SDS011;50512;53.666;9.700;2022-10-16T13:55:48;6.53;;;1.30;;
64197;SDS011;50512;53.666;9.700;2022-10-16T13:58:14;10.32;;;1.40;;
64197;SDS011;50512;53.666;9.700;2022-10-16T14:00:40;5.68;;;1.50;;
64197;SDS011;50512;53.666;9.700;2022-10-16T14:03:18;3.95;;;0.90;;
64197;SDS011;50512;53.666;9.700;2022-10-16T14:05:45;5.13;;;2.05;;
64197;SDS011;50512;53.666;9.700;2022-10-16T14:08:13;4.40;;;1.10;;
64197;SDS011;50512;53.666;9.700;2022-10-16T14:10:39;7.88;;;1.23;;
64197;SDS011;50512;53.666;9.700;2022-10-16T14:13:05;4.20;;;1.10;;
64197;SDS011;50512;53.666;9.700;2022-10-16T14:15:33;8.30;;;1.70;;
64197;SDS011;50512;53.666;9.700;2022-10-16T14:18:00;4.03;;;1.00;;
64197;SDS011;50512;53.666;9.700;2022-10-16T14:20:28;7.20;;;1.52;;
64197;SDS011;50512;53.666;9.700;2022-10-16T14:22:59;6.90;;;1.40;;
64197;SDS011;50512;53.666;9.700;2022-10-16T14:25:27;3.88;;;1.17;;
64197;SDS011;50512;53.666;9.700;2022-10-16T14:28:00;7.32;;;1.10;;
64197;SDS011;50512;53.666;9.700;2022-10-16T14:30:28;8.57;;;1.27;;
64197;SDS011;50512;53.666;9.700;2022-10-16T14:32:58;7.05;;;1.42;;
64197;SDS011;50512;53.666;9.700;2022-10-16T14:35:27;7.95;;;1.50;;
64197;SDS011;50512;53.666;9.700;2022-10-16T14:37:56;3.90;;;1.40;;
64197;SDS011;50512;53.666;9.700;2022-10-16T14:40:23;6.57;;;1.33;;
64197;SDS011;50512;53.666;9.700;2022-10-16T14:42:50;6.35;;;1.40;;
64197;SDS011;50512;53.666;9.700;2022-10-16T14:45:18;7.43;;;1.30;;
64197;SDS011;50512;53.666;9.700;2022-10-16T14:47:48;6.97;;;1.48;;
64197;SDS011;50512;53.666;9.700;2022-10-16T14:50:15;5.43;;;1.35;;
64197;SDS011;50512;53.666;9.700;2022-10-16T14:52:42;5.22;;;2.13;;
64197;SDS011;50512;53.666;9.700;2022-10-16T14:55:08;5.68;;;1.40;;
64197;SDS011;50512;53.666;9.700;2022-10-16T14:57:34;8.05;;;1.50;;
64197;SDS011;50512;53.666;9.700;2022-10-16T15:00:02;6.32;;;1.25;;
64197;SDS011;50512;53.666;9.700;2022-10-16T15:02:29;10.93;;;1.30;;
64197;SDS011;50512;53.666;9.700;2022-10-16T15:04:55;7.50;;;1.38;;
64197;SDS011;50512;53.666;9.700;2022-10-16T15:07:21;10.05;;;2.30;;
64197;SDS011;50512;53.666;9.700;2022-10-16T15:09:48;4.38;;;1.10;;
64197;SDS011;50512;53.666;9.700;2022-10-16T15:12:14;4.03;;;1.33;;
64197;SDS011;50512;53.666;9.700;2022-10-16T15:14:39;6.60;;;1.02;;